EKAH/AAR METAR and TAF weather

Enter ICAO airport designator
Station Type Date Time Source
EKAH METAR 2022/11/27 08:20 UTC NOAA

EKAH 270820Z AUTO 15006KT 120V210 9999 OVC004/// 08/07 Q1024


Station Type Date Time Source
EKAH Decoded METAR 2022/11/27 08:20 UTC NOAA

Tirstrup, Denmark (EKAH) 56-18N 010-37E 25M
Nov 27, 2022 - 03:20 AM EST / 2022.11.27 0820 UTC
Wind: from the SSE (150 degrees) at 7 MPH (6 KT) (direction variable):0
Visibility: greater than 7 mile(s):0
Sky conditions: overcast
Temperature: 46 F (8 C)
Dew Point: 44 F (7 C)
Relative Humidity: 93%
Pressure (altimeter): 30.24 in. Hg (1024 hPa)
ob: EKAH 270820Z AUTO 15006KT 120V210 9999 OVC004/// 08/07 Q1024
cycle: 8

Station Type Date Time Source
EKAH TAF 2022/11/27 06:30 UTC NOAA

TAF TAF EKAH 270506Z 2706/2806 15010KT 3000 BR BKN002
TEMPO 2706/2710 5000 NSW BKN005
BECMG 2710/2712 8000 NSW BKN008
BECMG 2713/2715 SCT012
TEMPO 2715/2802 BKN012

Example: see airport list